createdAt,value
2023-03-03T00:01:43.937Z,58.53
2023-03-03T00:04:11.468Z,58.42
2023-03-03T00:06:39.386Z,58.72
2023-03-03T00:09:08.289Z,59.01
2023-03-03T00:11:35.887Z,59.15
2023-03-03T00:14:03.451Z,59.00
2023-03-03T00:16:33.520Z,59.08
2023-03-03T00:19:01.209Z,59.17
2023-03-03T00:21:31.257Z,59.27
2023-03-03T00:24:19.229Z,59.59
2023-03-03T00:26:47.876Z,60.18
2023-03-03T00:29:28.396Z,60.42
2023-03-03T00:31:56.345Z,60.75
2023-03-03T00:34:27.133Z,61.24
2023-03-03T00:36:55.979Z,61.48
2023-03-03T00:39:29.215Z,61.61
2023-03-03T00:41:57.232Z,61.60
2023-03-03T00:44:43.706Z,61.70
2023-03-03T00:47:20.245Z,61.97
2023-03-03T00:49:47.803Z,62.38
2023-03-03T00:52:18.282Z,62.45
2023-03-03T00:54:47.324Z,62.30
2023-03-03T00:57:14.911Z,62.60
2023-03-03T00:59:42.445Z,62.57
2023-03-03T01:02:10.126Z,62.99
2023-03-03T01:04:37.858Z,62.87
2023-03-03T01:07:05.433Z,62.52
2023-03-03T01:09:33.001Z,63.12
2023-03-03T01:12:01.957Z,63.82
2023-03-03T01:14:29.549Z,63.71
2023-03-03T01:16:57.227Z,63.89
2023-03-03T01:19:24.799Z,63.58
2023-03-03T01:21:52.637Z,63.75
2023-03-03T01:24:20.157Z,63.63
2023-03-03T01:26:47.855Z,63.19
2023-03-03T01:29:16.745Z,63.07
2023-03-03T01:31:44.546Z,63.67
2023-03-03T01:34:12.168Z,63.63
2023-03-03T01:36:39.853Z,63.90
2023-03-03T01:39:07.483Z,63.75
2023-03-03T01:41:35.010Z,64.02
2023-03-03T01:44:02.828Z,64.11
2023-03-03T01:46:43.821Z,64.47
2023-03-03T01:49:14.566Z,64.26
2023-03-03T01:51:48.452Z,64.65
2023-03-03T01:54:19.925Z,64.20
2023-03-03T01:56:48.010Z,64.13
2023-03-03T01:59:18.392Z,63.67
2023-03-03T02:01:48.516Z,64.10
2023-03-03T02:04:16.498Z,64.42
2023-03-03T02:06:48.749Z,64.74
2023-03-03T02:09:20.163Z,64.43
2023-03-03T02:11:50.375Z,64.67
2023-03-03T02:14:17.957Z,64.91
2023-03-03T02:16:47.021Z,64.97
2023-03-03T02:19:20.461Z,65.12
2023-03-03T02:21:48.011Z,65.52
2023-03-03T02:24:19.622Z,65.70
2023-03-03T02:26:49.044Z,66.90
2023-03-03T02:29:16.663Z,66.91
2023-03-03T02:31:44.273Z,66.75
2023-03-03T02:34:11.986Z,66.67
2023-03-03T02:36:41.002Z,66.70
2023-03-03T02:39:11.509Z,67.21
2023-03-03T02:41:42.723Z,67.76
2023-03-03T02:44:13.299Z,68.29
2023-03-03T02:46:43.067Z,68.75
2023-03-03T02:49:12.650Z,69.07
2023-03-03T02:51:40.506Z,69.29
2023-03-03T02:54:09.342Z,69.79
2023-03-03T02:56:37.542Z,70.23
2023-03-03T02:59:05.308Z,70.52
2023-03-03T03:01:37.077Z,71.02
2023-03-03T03:04:08.348Z,71.18
2023-03-03T03:06:36.920Z,71.08
2023-03-03T03:09:04.983Z,71.45
2023-03-03T03:11:32.925Z,71.42
2023-03-03T03:14:00.547Z,71.82
2023-03-03T03:16:28.326Z,72.15
2023-03-03T03:18:57.335Z,72.44
2023-03-03T03:21:24.878Z,72.42
2023-03-03T03:23:52.515Z,73.13
2023-03-03T03:26:21.134Z,73.46
2023-03-03T03:28:48.979Z,73.61
2023-03-03T03:31:16.770Z,73.55
2023-03-03T03:33:44.539Z,73.73
2023-03-03T03:36:13.558Z,74.19
2023-03-03T03:38:41.168Z,74.74
2023-03-03T03:41:09.077Z,74.69
2023-03-03T03:43:37.028Z,75.00
2023-03-03T03:46:04.920Z,75.44
2023-03-03T03:48:32.656Z,75.27
2023-03-03T03:51:00.194Z,75.45
2023-03-03T03:53:29.061Z,75.14
2023-03-03T03:55:56.707Z,75.01
2023-03-03T03:58:24.230Z,75.64
2023-03-03T04:00:51.815Z,76.53
2023-03-03T04:03:19.520Z,76.79
2023-03-03T04:05:47.117Z,77.25
2023-03-03T04:08:14.704Z,77.62
2023-03-03T04:10:43.848Z,77.77
2023-03-03T04:13:11.492Z,78.67
2023-03-03T04:15:39.044Z,79.19
2023-03-03T04:18:06.696Z,79.41
2023-03-03T04:20:34.356Z,79.80
2023-03-03T04:23:02.052Z,80.13
2023-03-03T04:25:29.588Z,80.67
2023-03-03T04:27:58.517Z,80.96
2023-03-03T04:30:26.927Z,81.09
2023-03-03T04:32:54.645Z,80.73
2023-03-03T04:35:22.304Z,81.18
2023-03-03T04:37:49.890Z,81.14
2023-03-03T04:40:20.672Z,81.60
2023-03-03T04:42:48.310Z,81.15
2023-03-03T04:45:17.518Z,81.98
2023-03-03T04:47:45.095Z,82.16
2023-03-03T04:50:12.914Z,82.43
2023-03-03T04:52:40.463Z,83.10
2023-03-03T04:55:10.588Z,83.26
2023-03-03T04:57:38.404Z,83.27
2023-03-03T05:00:07.285Z,84.02
2023-03-03T05:02:36.325Z,84.92
2023-03-03T05:05:04.089Z,85.98
2023-03-03T05:07:31.784Z,86.84
2023-03-03T05:09:59.300Z,86.79
2023-03-03T05:12:26.957Z,86.36
2023-03-03T05:14:54.522Z,86.35
2023-03-03T05:17:22.105Z,86.71
2023-03-03T05:19:51.059Z,86.55
2023-03-03T05:22:18.606Z,86.21
2023-03-03T05:24:49.006Z,87.00
2023-03-03T05:27:16.697Z,87.50
2023-03-03T05:29:44.460Z,87.46
2023-03-03T05:32:12.283Z,87.65
2023-03-03T05:34:40.073Z,87.55
2023-03-03T05:37:09.072Z,87.72
2023-03-03T05:39:39.616Z,87.82
2023-03-03T05:42:07.389Z,88.98
2023-03-03T05:44:34.947Z,88.59
2023-03-03T05:47:02.478Z,89.58
2023-03-03T05:49:29.990Z,89.93
2023-03-03T05:51:59.112Z,89.92
2023-03-03T05:54:28.068Z,90.43
2023-03-03T05:56:57.220Z,90.34
2023-03-03T05:59:24.811Z,89.97
2023-03-03T06:01:52.389Z,90.40
2023-03-03T06:04:20.009Z,90.47
2023-03-03T06:06:47.564Z,90.34
2023-03-03T06:09:15.523Z,90.21
2023-03-03T06:11:44.478Z,90.35
2023-03-03T06:14:12.110Z,90.76
2023-03-03T06:16:39.690Z,90.89
2023-03-03T06:19:07.271Z,90.99
2023-03-03T06:21:34.870Z,90.77
2023-03-03T06:24:02.406Z,91.12
2023-03-03T06:26:30.005Z,91.03
2023-03-03T06:28:59.028Z,91.17
2023-03-03T06:31:27.135Z,91.57
2023-03-03T06:33:55.016Z,91.83
2023-03-03T06:36:23.512Z,91.80
2023-03-03T06:38:51.202Z,92.32
2023-03-03T06:41:18.771Z,92.79
2023-03-03T06:43:46.353Z,92.62
2023-03-03T06:46:15.298Z,93.51
2023-03-03T06:48:42.914Z,93.29
2023-03-03T06:51:21.730Z,93.45
2023-03-03T06:53:49.813Z,93.19
2023-03-03T06:56:18.352Z,93.05
2023-03-03T06:58:45.909Z,93.49
2023-03-03T07:01:18.070Z,92.85
2023-03-03T07:03:45.804Z,92.32
2023-03-03T07:06:22.473Z,92.23
2023-03-03T07:08:50.421Z,91.72
2023-03-03T07:11:20.484Z,92.85
2023-03-03T07:13:49.394Z,92.48
2023-03-03T07:16:20.342Z,91.67
2023-03-03T07:18:51.295Z,91.19
2023-03-03T07:21:20.460Z,90.72
2023-03-03T07:23:49.708Z,89.42
2023-03-03T07:26:19.433Z,88.97
2023-03-03T07:28:54.076Z,89.44
2023-03-03T07:31:28.745Z,89.51
2023-03-03T07:33:56.982Z,89.07
2023-03-03T07:36:28.613Z,88.59
2023-03-03T07:38:57.602Z,88.50
2023-03-03T07:41:25.226Z,88.56
2023-03-03T07:43:54.917Z,88.24
2023-03-03T07:46:36.126Z,87.51
2023-03-03T07:49:11.693Z,87.78
2023-03-03T07:51:42.051Z,87.29
2023-03-03T07:54:31.856Z,88.67
2023-03-03T07:57:04.065Z,89.14
2023-03-03T07:59:32.152Z,89.38
2023-03-03T08:02:01.489Z,88.97
2023-03-03T08:04:31.042Z,89.85
2023-03-03T08:06:59.386Z,88.90
2023-03-03T08:09:48.466Z,90.82
2023-03-03T08:12:33.010Z,91.75
2023-03-03T08:15:16.357Z,92.26
2023-03-03T08:17:46.032Z,93.41
2023-03-03T08:20:38.580Z,93.06
2023-03-03T08:23:06.180Z,92.91
2023-03-03T08:25:33.772Z,93.69
2023-03-03T08:28:01.322Z,92.20
2023-03-03T08:30:28.973Z,91.81
2023-03-03T08:32:57.936Z,91.81
2023-03-03T08:35:25.583Z,91.01
2023-03-03T08:37:53.100Z,90.67
2023-03-03T08:40:20.712Z,90.48
2023-03-03T08:42:48.938Z,90.38
2023-03-03T08:45:16.763Z,89.72
2023-03-03T08:47:44.792Z,89.77
2023-03-03T08:50:14.564Z,89.88
2023-03-03T08:52:42.229Z,89.33
2023-03-03T08:55:10.211Z,88.71
2023-03-03T08:57:39.043Z,89.21
2023-03-03T09:00:09.102Z,87.93
2023-03-03T09:02:36.705Z,89.06
2023-03-03T09:05:04.724Z,89.33
2023-03-03T09:07:33.733Z,88.48
2023-03-03T09:10:01.402Z,88.30
2023-03-03T09:12:31.498Z,89.12
2023-03-03T09:15:01.701Z,88.73
2023-03-03T09:17:31.837Z,88.30
2023-03-03T09:20:02.815Z,88.22
2023-03-03T09:22:30.450Z,87.30
2023-03-03T09:25:00.413Z,86.83
2023-03-03T09:27:30.533Z,86.02
2023-03-03T09:29:58.738Z,85.86
2023-03-03T09:32:33.117Z,85.55
2023-03-03T09:35:01.282Z,85.42
2023-03-03T09:37:32.415Z,86.85
2023-03-03T09:40:01.412Z,86.09
2023-03-03T09:42:42.919Z,84.94
2023-03-03T09:45:37.041Z,84.79
2023-03-03T09:48:24.097Z,84.78
2023-03-03T09:51:00.682Z,85.09
2023-03-03T09:53:38.656Z,83.25
2023-03-03T09:56:12.422Z,83.01
2023-03-03T09:58:53.039Z,82.65
2023-03-03T10:01:35.136Z,81.81
2023-03-03T10:04:15.338Z,81.40
2023-03-03T10:06:46.912Z,81.17
2023-03-03T10:09:48.346Z,80.04
2023-03-03T10:12:22.513Z,79.71
2023-03-03T10:15:08.449Z,81.26
2023-03-03T10:17:45.687Z,80.83
2023-03-03T10:20:49.195Z,80.54
2023-03-03T10:23:23.420Z,81.15
2023-03-03T10:25:55.508Z,80.15
2023-03-03T10:28:53.698Z,79.87
2023-03-03T10:31:29.349Z,79.88
2023-03-03T10:34:00.381Z,78.61
2023-03-03T10:36:46.626Z,78.19
2023-03-03T10:39:26.857Z,78.02
2023-03-03T10:42:08.360Z,77.78
2023-03-03T10:44:56.923Z,76.87
2023-03-03T10:47:48.569Z,76.24
2023-03-03T10:50:22.613Z,75.59
2023-03-03T10:52:53.486Z,75.76
2023-03-03T10:55:39.942Z,75.70
2023-03-03T10:58:29.299Z,75.13
2023-03-03T11:01:07.102Z,73.96
2023-03-03T11:03:43.468Z,74.50
2023-03-03T11:06:16.290Z,73.76
2023-03-03T11:08:47.533Z,73.98
2023-03-03T11:11:18.370Z,73.56
2023-03-03T11:13:49.413Z,73.32
2023-03-03T11:16:32.910Z,73.29
2023-03-03T11:19:11.402Z,73.45
2023-03-03T11:21:43.111Z,73.14
2023-03-03T11:24:24.768Z,73.46
2023-03-03T11:27:02.445Z,74.03
2023-03-03T11:29:43.478Z,72.50
2023-03-03T11:32:22.278Z,72.41
2023-03-03T11:34:57.852Z,71.31
2023-03-03T11:37:31.002Z,71.52
2023-03-03T11:40:03.877Z,71.47
2023-03-03T11:42:38.561Z,71.39
2023-03-03T11:45:14.101Z,71.24
2023-03-03T11:47:48.556Z,70.85
2023-03-03T11:50:20.124Z,70.46
2023-03-03T11:52:53.237Z,70.58
2023-03-03T11:55:25.017Z,70.06
2023-03-03T11:57:57.142Z,70.36
2023-03-03T12:00:32.563Z,70.99
2023-03-03T12:03:13.223Z,70.88
2023-03-03T12:05:48.505Z,70.06
2023-03-03T12:08:24.916Z,70.02
2023-03-03T12:10:58.513Z,70.50
2023-03-03T12:13:31.351Z,69.57
2023-03-03T12:16:06.714Z,69.92
2023-03-03T12:19:03.329Z,70.21
2023-03-03T12:21:42.576Z,68.99
2023-03-03T12:24:20.710Z,70.18
2023-03-03T12:26:52.845Z,69.82
2023-03-03T12:29:28.658Z,69.67
2023-03-03T12:32:06.067Z,68.73
2023-03-03T12:34:40.121Z,68.49
2023-03-03T12:37:17.019Z,67.94
2023-03-03T12:39:55.016Z,68.17
2023-03-03T12:42:30.360Z,69.00
2023-03-03T12:45:06.486Z,67.89
2023-03-03T12:47:38.813Z,68.19
2023-03-03T12:50:24.617Z,66.33
2023-03-03T12:52:56.791Z,66.00
2023-03-03T12:55:32.111Z,65.81
2023-03-03T12:58:05.559Z,66.64
2023-03-03T13:00:44.840Z,67.21
2023-03-03T13:03:28.348Z,66.69
2023-03-03T13:06:07.548Z,65.71
2023-03-03T13:08:45.978Z,66.63
2023-03-03T13:11:25.513Z,65.89
2023-03-03T13:13:55.219Z,65.65
2023-03-03T13:16:40.345Z,65.68
2023-03-03T13:19:10.963Z,65.44
2023-03-03T13:21:42.591Z,64.83
2023-03-03T13:24:17.652Z,64.85
2023-03-03T13:26:49.057Z,65.75
2023-03-03T13:29:21.436Z,65.25
2023-03-03T13:31:50.884Z,65.45
2023-03-03T13:34:26.765Z,65.39
2023-03-03T13:36:59.303Z,64.36
2023-03-03T13:39:29.379Z,64.74
2023-03-03T13:41:58.531Z,64.54
2023-03-03T13:44:31.199Z,64.30
2023-03-03T13:47:09.956Z,63.43
2023-03-03T13:49:47.700Z,63.05
2023-03-03T13:52:22.141Z,63.25
2023-03-03T13:54:56.257Z,63.13
2023-03-03T13:57:39.816Z,63.29
2023-03-03T14:00:17.639Z,63.37
2023-03-03T14:02:55.459Z,63.28
2023-03-03T14:05:28.114Z,63.65
2023-03-03T14:08:00.341Z,63.76
2023-03-03T14:10:31.537Z,62.91
2023-03-03T14:13:04.504Z,63.42
2023-03-03T14:15:34.391Z,62.78
2023-03-03T14:18:15.411Z,62.89
2023-03-03T14:20:46.235Z,63.09
2023-03-03T14:23:18.483Z,63.85
2023-03-03T14:25:54.303Z,62.64
2023-03-03T14:28:23.748Z,61.93
2023-03-03T14:30:55.149Z,62.35
2023-03-03T14:33:26.142Z,62.11
2023-03-03T14:36:06.892Z,62.60
2023-03-03T14:38:41.544Z,62.33
2023-03-03T14:41:16.035Z,63.24
2023-03-03T14:43:45.297Z,62.67
2023-03-03T14:46:33.506Z,62.63
2023-03-03T14:49:03.078Z,62.13
2023-03-03T14:51:34.655Z,62.18
2023-03-03T14:54:09.604Z,62.07
2023-03-03T14:56:39.307Z,62.13
2023-03-03T14:59:19.234Z,61.62
2023-03-03T15:01:47.840Z,61.22
2023-03-03T15:04:26.036Z,61.97
2023-03-03T15:06:54.847Z,62.50
2023-03-03T15:09:36.541Z,61.88
2023-03-03T15:12:06.864Z,62.50
2023-03-03T15:14:38.412Z,62.45
2023-03-03T15:17:27.126Z,62.61
2023-03-03T15:20:14.721Z,62.28
2023-03-03T15:22:48.681Z,60.99
2023-03-03T15:25:41.819Z,62.16
2023-03-03T15:28:23.454Z,61.41
2023-03-03T15:30:54.482Z,61.22
2023-03-03T15:33:30.417Z,61.21
2023-03-03T15:36:04.321Z,61.21
2023-03-03T15:38:42.001Z,61.23
2023-03-03T15:41:27.503Z,61.13
2023-03-03T15:44:03.706Z,60.54
2023-03-03T15:46:40.257Z,59.99
2023-03-03T15:49:17.925Z,60.15
2023-03-03T15:52:03.178Z,60.92
2023-03-03T15:54:37.438Z,60.44
2023-03-03T15:57:16.245Z,60.41
2023-03-03T16:00:04.492Z,59.45
2023-03-03T16:02:40.476Z,59.82
2023-03-03T16:05:16.286Z,60.49
2023-03-03T16:07:51.490Z,59.82
2023-03-03T16:10:26.016Z,60.59
2023-03-03T16:13:01.242Z,60.60
2023-03-03T16:15:38.220Z,60.41
2023-03-03T16:18:14.303Z,60.52
2023-03-03T16:20:47.120Z,59.95
2023-03-03T16:23:31.757Z,59.94
2023-03-03T16:26:04.987Z,60.19
2023-03-03T16:28:44.710Z,60.11
2023-03-03T16:31:14.934Z,60.11
2023-03-03T16:33:45.442Z,60.07
2023-03-03T16:36:19.928Z,62.65
2023-03-03T16:38:52.254Z,65.13
2023-03-03T16:41:22.825Z,67.51
2023-03-03T16:44:02.583Z,69.11
2023-03-03T16:46:33.610Z,70.64
2023-03-03T16:49:06.117Z,70.63
2023-03-03T16:51:40.561Z,71.53
2023-03-03T16:54:10.561Z,71.98
2023-03-03T16:56:44.292Z,72.78
2023-03-03T16:59:38.554Z,72.94
2023-03-03T17:02:27.160Z,73.76
2023-03-03T17:04:59.239Z,74.23
2023-03-03T17:07:41.174Z,74.91
2023-03-03T17:10:23.027Z,75.42
2023-03-03T17:13:10.349Z,75.68
2023-03-03T17:15:45.636Z,76.23
2023-03-03T17:18:16.039Z,76.77
2023-03-03T17:20:49.340Z,77.19
2023-03-03T17:23:31.499Z,77.75
2023-03-03T17:26:06.866Z,78.03
2023-03-03T17:28:43.945Z,79.05
2023-03-03T17:31:18.399Z,79.08
2023-03-03T17:34:16.092Z,79.55
2023-03-03T17:36:54.827Z,79.96
2023-03-03T17:39:42.633Z,80.90
2023-03-03T17:42:17.346Z,80.81
2023-03-03T17:44:51.883Z,81.58
2023-03-03T17:47:31.358Z,81.44
2023-03-03T17:50:09.554Z,81.70
2023-03-03T17:52:59.489Z,81.67
2023-03-03T17:55:34.619Z,82.67
2023-03-03T17:58:14.453Z,82.89
2023-03-03T18:00:51.743Z,82.61
2023-03-03T18:03:37.694Z,82.66
2023-03-03T18:06:27.271Z,83.16
2023-03-03T18:09:18.238Z,83.24
2023-03-03T18:11:58.090Z,83.46
2023-03-03T18:14:46.872Z,84.10
2023-03-03T18:17:31.382Z,83.98
2023-03-03T18:20:13.200Z,84.42
2023-03-03T18:22:45.478Z,84.39
2023-03-03T18:25:15.180Z,84.99
2023-03-03T18:27:43.566Z,85.29
2023-03-03T18:30:35.150Z,85.38
2023-03-03T18:33:08.564Z,85.63
2023-03-03T18:35:38.904Z,85.56
2023-03-03T18:38:30.968Z,85.78
2023-03-03T18:40:59.964Z,86.31
2023-03-03T18:43:55.625Z,86.04
2023-03-03T18:46:51.530Z,86.72
2023-03-03T18:49:19.632Z,86.64
2023-03-03T18:51:52.893Z,87.23
2023-03-03T18:54:31.015Z,87.31
2023-03-03T18:57:17.063Z,87.15
2023-03-03T18:59:56.735Z,87.55
2023-03-03T19:02:46.256Z,87.56
2023-03-03T19:05:20.426Z,87.49
2023-03-03T19:07:53.325Z,87.85
2023-03-03T19:10:57.367Z,88.44
2023-03-03T19:13:46.748Z,88.62
2023-03-03T19:16:36.583Z,88.39
2023-03-03T19:19:09.872Z,88.47
2023-03-03T19:21:38.916Z,88.71
2023-03-03T19:24:27.224Z,88.42
2023-03-03T19:27:00.192Z,88.93
2023-03-03T19:29:51.753Z,88.93
2023-03-03T19:32:32.177Z,89.24
2023-03-03T19:35:11.117Z,89.93
2023-03-03T19:37:47.157Z,90.13
2023-03-03T19:40:23.059Z,90.52
2023-03-03T19:42:58.636Z,90.18
2023-03-03T19:45:35.510Z,90.50
2023-03-03T19:48:07.734Z,90.36
2023-03-03T19:50:45.159Z,90.74
2023-03-03T19:53:22.635Z,91.09
2023-03-03T19:56:01.688Z,91.18
2023-03-03T19:58:32.769Z,91.17
2023-03-03T20:01:08.283Z,91.55
2023-03-03T20:03:49.717Z,92.20
2023-03-03T20:06:27.161Z,92.18
2023-03-03T20:09:00.671Z,92.98
2023-03-03T20:11:47.905Z,92.78
2023-03-03T20:14:28.771Z,92.81
2023-03-03T20:17:01.241Z,93.57
2023-03-03T20:19:41.176Z,93.42
2023-03-03T20:22:10.632Z,93.13
2023-03-03T20:24:47.740Z,93.64
2023-03-03T20:27:18.798Z,94.18
2023-03-03T20:30:08.536Z,93.83
2023-03-03T20:32:59.133Z,94.10
2023-03-03T20:35:33.857Z,93.89
2023-03-03T20:38:10.121Z,94.57
2023-03-03T20:40:41.317Z,94.70
2023-03-03T20:43:20.768Z,95.11
2023-03-03T20:45:57.308Z,94.85
2023-03-03T20:48:35.157Z,95.19
2023-03-03T20:51:06.879Z,94.94
2023-03-03T20:53:42.058Z,95.19
2023-03-03T20:56:12.900Z,95.37
2023-03-03T20:58:53.869Z,95.65
2023-03-03T21:01:27.413Z,96.24
2023-03-03T21:03:56.634Z,96.32
2023-03-03T21:06:25.478Z,96.59
2023-03-03T21:08:54.358Z,96.59
2023-03-03T21:11:23.214Z,96.90
2023-03-03T21:13:54.197Z,96.75
2023-03-03T21:16:32.846Z,96.83
2023-03-03T21:19:02.992Z,96.56
2023-03-03T21:21:32.782Z,97.01
2023-03-03T21:24:00.434Z,97.29
2023-03-03T21:26:52.466Z,97.48
2023-03-03T21:29:24.179Z,97.11
2023-03-03T21:31:53.357Z,97.12
2023-03-03T21:34:24.482Z,97.87
2023-03-03T21:36:52.795Z,98.11
2023-03-03T21:39:22.846Z,98.14
2023-03-03T21:41:58.465Z,98.05
2023-03-03T21:44:41.545Z,98.55
2023-03-03T21:47:10.668Z,98.62
2023-03-03T21:49:41.770Z,98.65
2023-03-03T21:52:09.716Z,98.58
2023-03-03T21:54:37.784Z,99.29
2023-03-03T21:57:05.628Z,99.30
2023-03-03T21:59:34.638Z,99.56
2023-03-03T22:02:02.177Z,99.86
2023-03-03T22:04:29.779Z,100.00
2023-03-03T22:06:57.650Z,100.00
2023-03-03T22:09:25.271Z,100.00
2023-03-03T22:11:52.869Z,100.00
2023-03-03T22:14:20.445Z,100.00
2023-03-03T22:16:49.297Z,100.00
2023-03-03T22:19:16.819Z,100.00
2023-03-03T22:21:44.574Z,100.00
2023-03-03T22:24:12.912Z,100.00
2023-03-03T22:26:40.549Z,100.00
2023-03-03T22:29:08.203Z,100.00
2023-03-03T22:31:35.862Z,100.00
2023-03-03T22:34:05.291Z,100.00
2023-03-03T22:36:33.163Z,100.00
2023-03-03T22:39:02.066Z,100.00
2023-03-03T22:41:30.166Z,100.00
2023-03-03T22:43:58.431Z,100.00
2023-03-03T22:46:26.670Z,100.00
2023-03-03T22:48:55.441Z,100.00
2023-03-03T22:51:24.652Z,100.00
2023-03-03T22:53:52.183Z,100.00
2023-03-03T22:56:19.788Z,100.00
2023-03-03T22:58:47.482Z,100.00
2023-03-03T23:01:15.084Z,100.00
2023-03-03T23:03:42.663Z,100.00
2023-03-03T23:06:10.240Z,100.00
2023-03-03T23:08:39.234Z,100.00
2023-03-03T23:11:06.798Z,100.00
2023-03-03T23:13:35.247Z,100.00
2023-03-03T23:16:02.995Z,100.00
2023-03-03T23:18:30.740Z,100.00
2023-03-03T23:20:58.450Z,100.00
2023-03-03T23:23:26.013Z,100.00
2023-03-03T23:25:54.886Z,100.00
2023-03-03T23:28:22.400Z,100.00
2023-03-03T23:30:52.093Z,100.00
2023-03-03T23:33:19.919Z,100.00
2023-03-03T23:35:48.875Z,100.00
2023-03-03T23:38:17.653Z,100.00
2023-03-03T23:40:46.674Z,100.00
2023-03-03T23:43:15.930Z,100.00
2023-03-03T23:45:43.509Z,100.00
2023-03-03T23:48:11.373Z,100.00
2023-03-03T23:50:39.270Z,100.00
2023-03-03T23:53:07.303Z,100.00
2023-03-03T23:55:34.970Z,100.00
2023-03-03T23:58:02.579Z,100.00
